createdAt,value
2022-12-16T00:00:18.184Z,38.49
2022-12-16T00:02:44.576Z,38.48
2022-12-16T00:05:11.009Z,38.51
2022-12-16T00:07:37.313Z,38.61
2022-12-16T00:10:03.725Z,38.54
2022-12-16T00:12:33.231Z,38.54
2022-12-16T00:14:59.546Z,38.51
2022-12-16T00:17:25.857Z,38.56
2022-12-16T00:19:52.173Z,38.46
2022-12-16T00:22:18.511Z,38.52
2022-12-16T00:24:44.837Z,38.59
2022-12-16T00:27:11.146Z,38.57
2022-12-16T00:29:37.473Z,38.57
2022-12-16T00:32:06.741Z,38.33
2022-12-16T00:34:33.301Z,38.64
2022-12-16T00:36:59.629Z,38.60
2022-12-16T00:39:25.998Z,38.55
2022-12-16T00:41:52.364Z,38.55
2022-12-16T00:44:18.712Z,38.53
2022-12-16T00:46:45.027Z,38.67
2022-12-16T00:49:11.341Z,38.43
2022-12-16T00:51:37.665Z,38.53
2022-12-16T00:54:03.988Z,38.56
2022-12-16T00:56:30.318Z,38.56
2022-12-16T00:58:56.777Z,38.59
2022-12-16T01:01:23.153Z,38.56
2022-12-16T01:03:49.592Z,38.61
2022-12-16T01:06:16.976Z,38.59
2022-12-16T01:08:50.219Z,38.71
2022-12-16T01:11:17.081Z,38.69
2022-12-16T01:13:43.412Z,38.69
2022-12-16T01:16:09.759Z,38.68
2022-12-16T01:18:36.097Z,38.66
2022-12-16T01:21:03.303Z,38.57
2022-12-16T01:23:29.991Z,38.70
2022-12-16T01:26:00.069Z,38.64
2022-12-16T01:28:29.535Z,38.54
2022-12-16T01:31:01.837Z,38.66
2022-12-16T01:33:29.420Z,38.59
2022-12-16T01:36:02.891Z,38.59
2022-12-16T01:38:29.353Z,38.67
2022-12-16T01:40:55.673Z,38.82
2022-12-16T01:43:24.384Z,38.70
2022-12-16T01:45:50.741Z,38.63
2022-12-16T01:48:36.319Z,38.65
2022-12-16T01:51:13.879Z,38.60
2022-12-16T01:53:40.196Z,38.50
2022-12-16T01:56:06.901Z,38.55
2022-12-16T01:58:33.537Z,38.44
2022-12-16T02:00:59.943Z,38.48
2022-12-16T02:03:26.359Z,38.58
2022-12-16T02:05:52.727Z,38.57
2022-12-16T02:08:19.234Z,38.58
2022-12-16T02:10:46.910Z,38.53
2022-12-16T02:13:17.846Z,38.70
2022-12-16T02:16:02.398Z,38.73
2022-12-16T02:18:34.661Z,38.59
2022-12-16T02:21:10.144Z,38.53
2022-12-16T02:23:36.689Z,38.69
2022-12-16T02:26:14.268Z,38.72
2022-12-16T02:28:45.326Z,38.70
2022-12-16T02:31:25.247Z,38.76
2022-12-16T02:34:06.526Z,38.72
2022-12-16T02:36:44.062Z,38.37
2022-12-16T02:39:15.369Z,38.44
2022-12-16T02:41:50.425Z,38.51
2022-12-16T02:44:16.984Z,38.57
2022-12-16T02:46:43.969Z,38.54
2022-12-16T02:49:13.008Z,38.59
2022-12-16T02:51:39.322Z,38.48
2022-12-16T02:54:08.429Z,38.57
2022-12-16T03:04:35.953Z,38.51
2022-12-16T03:07:02.268Z,38.49
2022-12-16T03:09:29.817Z,38.47
2022-12-16T03:11:56.141Z,38.46
2022-12-16T03:14:23.185Z,38.57
2022-12-16T03:16:49.553Z,38.52
2022-12-16T03:19:15.981Z,38.55
2022-12-16T03:21:43.935Z,38.63
2022-12-16T03:24:10.674Z,38.49
2022-12-16T03:26:56.625Z,38.52
2022-12-16T03:33:00.645Z,38.62
2022-12-16T03:35:28.935Z,38.54
2022-12-16T03:37:55.697Z,38.51
2022-12-16T03:40:22.302Z,38.53
2022-12-16T03:42:48.615Z,38.52
2022-12-16T03:45:19.443Z,38.46
2022-12-16T03:47:49.297Z,38.44
2022-12-16T03:50:15.696Z,38.45
2022-12-16T03:52:42.001Z,38.26
2022-12-16T03:55:08.404Z,38.40
2022-12-16T03:57:34.738Z,38.40
2022-12-16T04:00:01.132Z,38.44
2022-12-16T04:02:27.558Z,38.46
2022-12-16T04:05:02.729Z,38.44
2022-12-16T04:07:29.049Z,38.45
2022-12-16T04:09:55.386Z,38.56
2022-12-16T04:12:40.197Z,38.45
2022-12-16T04:15:25.632Z,38.47
2022-12-16T04:18:10.785Z,38.45
2022-12-16T04:20:56.144Z,38.46
2022-12-16T04:23:41.595Z,38.36
2022-12-16T04:26:07.907Z,38.40
2022-12-16T04:28:34.216Z,38.32
2022-12-16T04:31:00.601Z,38.39
2022-12-16T04:33:45.516Z,38.35
2022-12-16T04:36:30.349Z,38.39
2022-12-16T04:39:15.451Z,38.26
2022-12-16T04:42:00.482Z,38.31
2022-12-16T04:44:45.846Z,38.26
2022-12-16T04:47:30.761Z,38.19
2022-12-16T04:50:15.842Z,38.28
2022-12-16T04:53:00.854Z,38.36
2022-12-16T04:55:48.860Z,38.29
2022-12-16T04:58:34.028Z,38.36
2022-12-16T05:01:19.276Z,38.31
2022-12-16T05:04:04.252Z,38.38
2022-12-16T05:06:49.329Z,38.29
2022-12-16T05:09:37.138Z,38.31
2022-12-16T05:12:21.854Z,38.32
2022-12-16T05:15:07.128Z,38.34
2022-12-16T05:17:52.448Z,38.30
2022-12-16T05:20:37.205Z,38.22
2022-12-16T05:23:22.141Z,38.41
2022-12-16T05:26:07.165Z,38.19
2022-12-16T05:28:52.139Z,38.00
2022-12-16T05:31:37.330Z,38.04
2022-12-16T05:34:22.336Z,38.12
2022-12-16T05:37:07.466Z,38.09
2022-12-16T05:39:52.185Z,38.05
2022-12-16T05:42:36.995Z,38.08
2022-12-16T05:45:21.915Z,38.14
2022-12-16T05:48:06.942Z,38.15
2022-12-16T05:50:51.948Z,38.27
2022-12-16T05:53:36.813Z,38.25
2022-12-16T05:56:21.728Z,38.26
2022-12-16T05:59:06.784Z,38.19
2022-12-16T06:01:52.868Z,38.18
2022-12-16T06:04:37.955Z,38.26
2022-12-16T06:07:22.843Z,38.27
2022-12-16T06:10:07.889Z,38.03
2022-12-16T06:12:52.811Z,38.33
2022-12-16T06:15:37.674Z,38.36
2022-12-16T06:18:22.447Z,38.06
2022-12-16T06:21:07.494Z,38.52
2022-12-16T06:23:52.537Z,38.29
2022-12-16T06:26:37.932Z,38.28
2022-12-16T06:29:23.091Z,37.45
2022-12-16T06:32:08.109Z,37.58
2022-12-16T06:34:52.941Z,37.62
2022-12-16T06:37:37.976Z,37.78
2022-12-16T06:40:23.162Z,37.75
2022-12-16T06:43:08.244Z,37.27
2022-12-16T06:45:53.182Z,37.89
2022-12-16T06:48:38.346Z,37.14
2022-12-16T06:51:23.259Z,37.56
2022-12-16T06:54:12.971Z,38.17
2022-12-16T06:56:58.304Z,37.82
2022-12-16T06:59:43.284Z,38.42
2022-12-16T07:02:31.483Z,38.62
2022-12-16T07:05:16.445Z,38.94
2022-12-16T07:08:18.074Z,38.85
2022-12-16T07:11:15.749Z,38.67
2022-12-16T07:14:01.982Z,38.57
2022-12-16T07:16:46.983Z,38.56
2022-12-16T07:19:32.189Z,38.59
2022-12-16T07:22:17.830Z,38.41
2022-12-16T07:25:09.296Z,38.47
2022-12-16T07:31:22.380Z,38.25
2022-12-16T07:34:07.525Z,38.21
2022-12-16T07:36:52.329Z,38.79
2022-12-16T07:39:37.173Z,38.51
2022-12-16T07:42:22.134Z,38.52
2022-12-16T07:45:08.714Z,38.96
2022-12-16T07:47:53.642Z,38.81
2022-12-16T07:50:40.644Z,38.86
2022-12-16T07:53:31.137Z,38.56
2022-12-16T07:56:16.438Z,38.66
2022-12-16T07:59:01.798Z,38.76
2022-12-16T08:01:46.962Z,38.64
2022-12-16T08:04:32.233Z,38.70
2022-12-16T08:07:17.327Z,38.57
2022-12-16T08:10:02.144Z,38.60
2022-12-16T08:12:50.726Z,38.52
2022-12-16T08:15:35.698Z,38.50
2022-12-16T08:18:20.761Z,38.57
2022-12-16T08:21:05.594Z,38.67
2022-12-16T08:23:54.853Z,38.71
2022-12-16T08:26:39.893Z,38.62
2022-12-16T08:29:43.714Z,38.36
2022-12-16T08:32:36.782Z,38.34
2022-12-16T08:35:21.609Z,38.30
2022-12-16T08:38:13.579Z,38.29
2022-12-16T08:40:59.456Z,38.03
2022-12-16T08:43:45.628Z,38.11
2022-12-16T08:46:30.717Z,38.32
2022-12-16T08:52:05.809Z,38.54
2022-12-16T08:54:50.613Z,38.66
2022-12-16T08:57:35.587Z,38.89
2022-12-16T09:00:20.337Z,38.66
2022-12-16T09:03:05.705Z,38.14
2022-12-16T09:05:50.768Z,38.43
2022-12-16T09:08:36.605Z,38.50
2022-12-16T09:11:21.463Z,38.69
2022-12-16T09:14:06.665Z,38.83
2022-12-16T09:16:51.627Z,38.99
2022-12-16T09:19:36.693Z,38.97
2022-12-16T09:22:21.483Z,38.95
2022-12-16T09:25:06.534Z,39.14
2022-12-16T09:27:51.429Z,38.99
2022-12-16T09:30:36.434Z,39.17
2022-12-16T09:33:21.800Z,39.27
2022-12-16T09:36:06.727Z,39.21
2022-12-16T09:38:51.665Z,39.09
2022-12-16T09:41:44.808Z,38.96
2022-12-16T09:44:39.277Z,39.01
2022-12-16T09:47:36.966Z,38.82
2022-12-16T09:50:21.789Z,39.05
2022-12-16T09:53:17.038Z,39.10
2022-12-16T09:56:02.013Z,38.91
2022-12-16T09:58:54.820Z,38.85
2022-12-16T10:01:51.050Z,38.85
2022-12-16T10:04:36.058Z,38.75
2022-12-16T10:07:20.897Z,38.85
2022-12-16T10:10:13.106Z,38.99
2022-12-16T10:13:17.757Z,38.97
2022-12-16T10:16:15.418Z,39.10
2022-12-16T10:19:03.356Z,39.15
2022-12-16T10:21:51.172Z,39.09
2022-12-16T10:24:40.332Z,38.93
2022-12-16T10:27:32.057Z,39.44
2022-12-16T10:30:17.333Z,38.97
2022-12-16T10:33:05.897Z,39.19
2022-12-16T10:36:17.043Z,39.15
2022-12-16T10:39:02.942Z,38.83
2022-12-16T10:41:51.358Z,37.30
2022-12-16T10:44:41.494Z,31.80
2022-12-16T10:47:26.300Z,29.35
2022-12-16T10:50:11.918Z,29.86
2022-12-16T10:53:08.176Z,30.24
2022-12-16T10:56:10.791Z,30.47
2022-12-16T10:59:12.791Z,30.95
2022-12-16T11:01:57.956Z,33.79
2022-12-16T11:04:55.571Z,30.43
2022-12-16T11:07:55.913Z,31.90
2022-12-16T11:10:45.061Z,32.54
2022-12-16T11:13:30.829Z,33.33
2022-12-16T11:16:38.202Z,34.19
2022-12-16T11:19:23.256Z,34.52
2022-12-16T11:22:08.179Z,34.61
2022-12-16T11:24:53.922Z,34.73
2022-12-16T11:27:44.854Z,34.92
2022-12-16T11:30:41.923Z,35.16
2022-12-16T11:33:31.174Z,35.35
2022-12-16T11:36:20.750Z,35.50
2022-12-16T11:39:06.204Z,35.65
2022-12-16T11:42:00.992Z,35.98
2022-12-16T11:44:52.106Z,35.94
2022-12-16T11:47:40.240Z,36.14
2022-12-16T11:50:27.629Z,36.26
2022-12-16T11:53:13.687Z,36.25
2022-12-16T11:56:12.407Z,36.46
2022-12-16T11:59:05.567Z,36.41
2022-12-16T12:01:51.437Z,36.56
2022-12-16T12:04:36.703Z,36.67
2022-12-16T12:07:25.709Z,36.77
2022-12-16T12:10:13.228Z,36.74
2022-12-16T12:13:01.732Z,36.85
2022-12-16T12:15:48.975Z,36.91
2022-12-16T12:18:46.899Z,37.07
2022-12-16T12:21:35.876Z,37.01
2022-12-16T12:24:39.125Z,37.14
2022-12-16T12:27:23.985Z,37.14
2022-12-16T12:30:30.150Z,37.24
2022-12-16T12:33:20.845Z,34.60
2022-12-16T12:36:25.208Z,35.42
2022-12-16T12:39:20.021Z,36.33
2022-12-16T12:42:14.285Z,36.87
2022-12-16T12:45:09.384Z,36.92
2022-12-16T12:47:54.384Z,37.09
2022-12-16T12:50:44.735Z,36.97
2022-12-16T12:53:42.381Z,37.07
2022-12-16T12:56:27.545Z,37.02
2022-12-16T12:59:16.397Z,37.31
2022-12-16T13:02:01.779Z,37.54
2022-12-16T13:04:47.045Z,37.67
2022-12-16T13:07:31.887Z,37.76
2022-12-16T13:10:33.897Z,37.89
2022-12-16T13:13:34.949Z,37.95
2022-12-16T13:16:23.175Z,37.53
2022-12-16T13:19:09.761Z,38.25
2022-12-16T13:21:54.877Z,37.97
2022-12-16T13:24:41.593Z,36.82
2022-12-16T13:27:35.823Z,37.09
2022-12-16T13:30:22.673Z,38.12
2022-12-16T13:33:14.445Z,38.68
2022-12-16T13:36:12.390Z,38.85
2022-12-16T13:39:04.042Z,38.76
2022-12-16T13:41:48.877Z,38.89
2022-12-16T13:44:53.761Z,38.96
2022-12-16T13:47:51.472Z,37.17
2022-12-16T13:50:55.378Z,33.47
2022-12-16T13:53:43.937Z,34.55
2022-12-16T13:56:28.830Z,33.92
2022-12-16T13:59:16.680Z,34.08
2022-12-16T14:02:17.190Z,34.57
2022-12-16T14:05:03.287Z,35.45
2022-12-16T14:07:49.201Z,36.15
2022-12-16T14:10:41.794Z,35.76
2022-12-16T14:13:29.223Z,36.58
2022-12-16T14:16:20.166Z,36.75
2022-12-16T14:19:10.115Z,36.96
2022-12-16T14:21:57.411Z,37.17
2022-12-16T14:24:43.344Z,37.23
2022-12-16T14:27:35.358Z,37.33
2022-12-16T14:30:20.737Z,37.53
2022-12-16T14:33:06.204Z,37.11
2022-12-16T14:35:51.120Z,37.28
2022-12-16T14:38:40.341Z,37.67
2022-12-16T14:41:28.771Z,37.81
2022-12-16T14:44:13.781Z,37.90
2022-12-16T14:46:58.870Z,38.08
2022-12-16T14:49:44.736Z,38.38
2022-12-16T14:52:39.000Z,38.09
2022-12-16T14:55:30.947Z,38.03
2022-12-16T14:58:26.186Z,38.34
2022-12-16T15:01:15.808Z,38.39
2022-12-16T15:04:02.140Z,38.33
2022-12-16T15:06:53.324Z,38.18
2022-12-16T15:09:46.911Z,37.98
2022-12-16T15:12:31.920Z,38.35
2022-12-16T15:15:16.778Z,38.37
2022-12-16T15:18:03.500Z,38.90
2022-12-16T15:20:49.151Z,38.37
2022-12-16T15:23:41.107Z,38.26
2022-12-16T15:26:39.330Z,38.11
2022-12-16T15:29:48.221Z,38.00
2022-12-16T15:32:52.134Z,38.20
2022-12-16T15:35:43.869Z,38.31
2022-12-16T15:38:34.906Z,38.18
2022-12-16T15:41:20.256Z,38.22
2022-12-16T15:44:05.343Z,38.32
2022-12-16T15:46:53.400Z,38.94
2022-12-16T15:49:51.022Z,38.45
2022-12-16T15:52:47.462Z,38.13
2022-12-16T15:55:42.564Z,38.38
2022-12-16T15:58:33.973Z,38.08
2022-12-16T16:01:19.169Z,38.33
2022-12-16T16:04:10.924Z,38.18
2022-12-16T16:06:55.901Z,37.98
2022-12-16T16:09:44.325Z,38.58
2022-12-16T16:12:29.685Z,38.50
2022-12-16T16:15:14.921Z,38.61
2022-12-16T16:17:59.908Z,38.51
2022-12-16T16:20:45.165Z,38.57
2022-12-16T16:23:30.305Z,38.57
2022-12-16T16:26:15.555Z,38.63
2022-12-16T16:29:00.801Z,38.75
2022-12-16T16:31:48.807Z,38.85
2022-12-16T16:34:34.781Z,38.68
2022-12-16T16:37:19.870Z,38.92
2022-12-16T16:40:04.754Z,38.49
2022-12-16T16:42:49.667Z,38.18
2022-12-16T16:45:34.540Z,38.25
2022-12-16T16:48:29.406Z,38.11
2022-12-16T16:51:14.876Z,38.24
2022-12-16T16:53:59.902Z,38.37
2022-12-16T16:56:45.113Z,38.52
2022-12-16T16:59:32.972Z,38.72
2022-12-16T17:02:18.194Z,38.79
2022-12-16T17:05:03.234Z,38.68
2022-12-16T17:07:52.251Z,38.53
2022-12-16T17:10:38.899Z,38.83
2022-12-16T17:13:23.774Z,38.70
2022-12-16T17:16:18.384Z,37.28
2022-12-16T17:19:03.347Z,37.43
2022-12-16T17:21:48.291Z,37.60
2022-12-16T17:24:33.173Z,37.55
2022-12-16T17:27:18.164Z,37.53
2022-12-16T17:30:03.240Z,37.50
2022-12-16T17:32:48.135Z,37.69
2022-12-16T17:35:32.931Z,37.85
2022-12-16T17:38:18.025Z,37.77
2022-12-16T17:41:03.213Z,38.03
2022-12-16T17:43:48.249Z,37.92
2022-12-16T17:46:33.238Z,38.13
2022-12-16T17:49:18.243Z,38.30
2022-12-16T17:52:03.412Z,38.21
2022-12-16T17:54:48.204Z,38.12
2022-12-16T17:57:32.958Z,38.02
2022-12-16T18:00:18.116Z,38.00
2022-12-16T18:03:03.355Z,37.98
2022-12-16T18:05:48.462Z,38.15
2022-12-16T18:08:33.393Z,38.10
2022-12-16T18:11:18.474Z,38.14
2022-12-16T18:14:14.159Z,38.13
2022-12-16T18:16:59.342Z,38.35
2022-12-16T18:19:44.352Z,38.66
2022-12-16T18:22:29.270Z,38.20
2022-12-16T18:25:14.368Z,38.33
2022-12-16T18:27:59.573Z,38.24
2022-12-16T18:30:44.375Z,37.62
2022-12-16T18:33:29.250Z,37.71
2022-12-16T18:36:14.398Z,38.03
2022-12-16T18:38:59.627Z,38.26
2022-12-16T18:41:44.523Z,38.08
2022-12-16T18:44:30.493Z,38.67
2022-12-16T18:47:15.640Z,39.06
2022-12-16T18:50:00.690Z,39.61
2022-12-16T18:52:45.475Z,38.98
2022-12-16T18:55:30.378Z,39.50
2022-12-16T18:58:49.764Z,39.28
2022-12-16T19:01:27.937Z,39.50
2022-12-16T19:04:13.727Z,39.44
2022-12-16T19:06:58.974Z,39.39
2022-12-16T19:09:48.319Z,39.31
2022-12-16T19:12:33.300Z,40.09
2022-12-16T19:15:18.393Z,40.16
2022-12-16T19:18:03.586Z,40.15
2022-12-16T19:20:48.535Z,40.70
2022-12-16T19:23:34.205Z,40.49
2022-12-16T19:26:19.328Z,40.52
2022-12-16T19:29:04.547Z,40.09
2022-12-16T19:31:49.283Z,39.89
2022-12-16T19:34:34.253Z,39.80
2022-12-16T19:37:19.285Z,39.81
2022-12-16T19:40:04.282Z,39.81
2022-12-16T19:42:49.235Z,40.03
2022-12-16T19:45:34.531Z,40.15
2022-12-16T19:48:20.270Z,40.39
2022-12-16T19:51:05.012Z,40.35
2022-12-16T19:53:49.889Z,40.41
2022-12-16T19:56:34.674Z,40.39
2022-12-16T19:59:22.537Z,40.45
2022-12-16T20:02:07.843Z,40.45
2022-12-16T20:04:52.955Z,40.46
2022-12-16T20:07:41.383Z,40.52
2022-12-16T20:10:27.747Z,40.58
2022-12-16T20:13:16.957Z,40.53
2022-12-16T20:16:05.069Z,40.41
2022-12-16T20:18:50.029Z,40.42
2022-12-16T20:21:34.859Z,40.56
2022-12-16T20:24:25.863Z,40.65
2022-12-16T20:27:14.454Z,40.64
2022-12-16T20:30:03.818Z,40.51
2022-12-16T20:32:48.915Z,40.53
2022-12-16T20:35:33.665Z,40.49
2022-12-16T20:38:18.913Z,40.50
2022-12-16T20:41:12.639Z,40.48
2022-12-16T20:43:57.681Z,40.42
2022-12-16T20:46:45.920Z,40.36
2022-12-16T20:49:31.254Z,40.38
2022-12-16T20:52:19.537Z,40.43
2022-12-16T20:55:04.693Z,40.39
2022-12-16T20:57:49.593Z,40.30
2022-12-16T21:00:34.517Z,40.48
2022-12-16T21:03:19.734Z,40.44
2022-12-16T21:06:04.569Z,40.37
2022-12-16T21:08:49.661Z,40.38
2022-12-16T21:11:34.404Z,40.39
2022-12-16T21:14:19.407Z,40.41
2022-12-16T21:17:04.466Z,40.24
2022-12-16T21:19:49.302Z,40.43
2022-12-16T21:22:34.259Z,40.29
2022-12-16T21:25:24.340Z,40.43
2022-12-16T21:28:09.618Z,40.37
2022-12-16T21:30:54.693Z,40.34
2022-12-16T21:33:41.586Z,40.35
2022-12-16T21:36:26.838Z,40.33
2022-12-16T21:39:11.881Z,40.34
2022-12-16T21:41:57.018Z,40.37
2022-12-16T21:44:41.882Z,40.46
2022-12-16T21:47:26.633Z,40.43
2022-12-16T21:50:11.814Z,40.35
2022-12-16T21:52:56.889Z,40.45
2022-12-16T21:55:41.723Z,40.38
2022-12-16T21:58:29.665Z,40.48
2022-12-16T22:01:14.698Z,40.43
2022-12-16T22:03:59.901Z,40.66
2022-12-16T22:06:48.600Z,40.53
2022-12-16T22:09:34.023Z,40.46
2022-12-16T22:12:19.248Z,40.40
2022-12-16T22:15:04.360Z,40.47
2022-12-16T22:17:54.448Z,40.59
2022-12-16T22:20:43.310Z,40.44
2022-12-16T22:23:28.533Z,40.48
2022-12-16T22:26:14.238Z,40.35
2022-12-16T22:28:59.359Z,40.51
2022-12-16T22:31:44.183Z,40.61
2022-12-16T22:34:29.289Z,40.59
2022-12-16T22:37:14.248Z,40.67
2022-12-16T22:39:59.521Z,40.63
2022-12-16T22:42:44.423Z,40.57
2022-12-16T22:45:29.321Z,40.56
2022-12-16T22:48:14.409Z,40.58
2022-12-16T22:50:59.506Z,40.72
2022-12-16T22:53:44.946Z,40.68
2022-12-16T22:56:30.206Z,40.69
2022-12-16T22:59:18.414Z,40.51
2022-12-16T23:02:03.556Z,40.55
2022-12-16T23:04:48.546Z,40.60
2022-12-16T23:07:33.734Z,40.57
2022-12-16T23:10:18.901Z,40.62
2022-12-16T23:13:04.245Z,40.61
2022-12-16T23:15:49.598Z,40.62
2022-12-16T23:18:34.756Z,40.60
2022-12-16T23:21:19.941Z,40.59
2022-12-16T23:24:09.672Z,40.52
2022-12-16T23:26:54.917Z,40.53
2022-12-16T23:29:41.344Z,40.52
2022-12-16T23:32:26.555Z,40.67
2022-12-16T23:35:11.683Z,40.46
2022-12-16T23:37:56.733Z,40.54
2022-12-16T23:41:01.412Z,40.58
2022-12-16T23:43:46.408Z,40.52
2022-12-16T23:46:31.506Z,40.50
2022-12-16T23:49:16.407Z,40.50
2022-12-16T23:52:01.703Z,40.47
2022-12-16T23:54:47.019Z,40.45
2022-12-16T23:57:31.941Z,40.47
